createdAt,value
2016-12-16T00:00:18.626Z,44.11
2016-12-16T00:01:18.601Z,44.11
2016-12-16T00:02:18.587Z,44.02
2016-12-16T00:03:18.570Z,43.92
2016-12-16T00:04:18.551Z,44.11
2016-12-16T00:05:18.535Z,43.95
2016-12-16T00:06:18.518Z,43.95
2016-12-16T00:07:18.500Z,43.95
2016-12-16T00:08:18.481Z,44.13
2016-12-16T00:09:18.467Z,43.95
2016-12-16T00:10:18.448Z,43.95
2016-12-16T00:11:18.431Z,44.13
2016-12-16T00:12:18.416Z,44.13
2016-12-16T00:13:18.395Z,44.04
2016-12-16T00:14:18.380Z,44.23
2016-12-16T00:15:18.364Z,44.04
2016-12-16T00:16:18.344Z,44.23
2016-12-16T00:17:18.327Z,44.04
2016-12-16T00:18:18.312Z,44.04
2016-12-16T00:19:18.296Z,44.13
2016-12-16T00:20:18.275Z,44.04
2016-12-16T00:21:18.259Z,43.95
2016-12-16T00:22:18.243Z,43.85
2016-12-16T00:23:18.226Z,44.04
2016-12-16T00:24:18.210Z,43.85
2016-12-16T00:25:18.196Z,43.76
2016-12-16T00:26:18.175Z,43.73
2016-12-16T00:27:18.160Z,43.73
2016-12-16T00:28:18.168Z,43.73
2016-12-16T00:29:18.123Z,43.54
2016-12-16T00:30:18.106Z,43.64
2016-12-16T00:31:18.091Z,43.76
2016-12-16T00:32:18.070Z,43.85
2016-12-16T00:33:18.056Z,43.57
2016-12-16T00:34:18.039Z,43.66
2016-12-16T00:35:18.021Z,43.66
2016-12-16T00:36:18.003Z,43.66
2016-12-16T00:37:17.987Z,43.76
2016-12-16T00:38:17.971Z,43.76
2016-12-16T00:39:17.953Z,43.66
2016-12-16T00:40:17.937Z,43.47
2016-12-16T00:41:17.919Z,43.76
2016-12-16T00:42:17.901Z,43.76
2016-12-16T00:43:17.882Z,43.76
2016-12-16T00:44:17.866Z,43.76
2016-12-16T00:45:17.849Z,43.76
2016-12-16T00:46:17.833Z,43.57
2016-12-16T00:47:17.817Z,43.47
2016-12-16T00:48:17.800Z,43.76
2016-12-16T00:49:17.782Z,43.38
2016-12-16T00:50:17.764Z,43.57
2016-12-16T00:51:17.751Z,43.47
2016-12-16T00:52:17.733Z,43.28
2016-12-16T00:53:17.715Z,43.85
2016-12-16T00:54:17.696Z,43.47
2016-12-16T00:55:17.680Z,43.28
2016-12-16T00:56:17.664Z,43.38
2016-12-16T00:57:17.649Z,43.47
2016-12-16T00:58:17.630Z,43.38
2016-12-16T00:59:17.610Z,43.38
2016-12-16T01:00:17.594Z,43.38
2016-12-16T01:01:17.576Z,43.28
2016-12-16T01:02:17.562Z,43.09
2016-12-16T01:03:32.457Z,43.09
2016-12-16T01:04:17.526Z,43
2016-12-16T01:05:17.509Z,42.9
2016-12-16T01:06:17.492Z,43
2016-12-16T01:07:17.476Z,42.9
2016-12-16T01:08:17.457Z,42.9
2016-12-16T01:09:17.445Z,42.9
2016-12-16T01:10:17.426Z,43
2016-12-16T01:11:17.405Z,43.02
2016-12-16T01:12:17.393Z,43.09
2016-12-16T01:13:17.376Z,43.19
2016-12-16T01:14:17.357Z,43.28
2016-12-16T01:15:17.341Z,43.38
2016-12-16T01:16:17.321Z,43.12
2016-12-16T01:17:17.304Z,43.28
2016-12-16T01:18:17.289Z,42.74
2016-12-16T01:19:17.272Z,42.93
2016-12-16T01:20:17.253Z,42.83
2016-12-16T01:21:17.237Z,42.9
2016-12-16T01:22:17.222Z,42.9
2016-12-16T01:23:17.202Z,42.62
2016-12-16T01:24:17.187Z,42.81
2016-12-16T01:25:17.168Z,42.74
2016-12-16T01:26:17.150Z,42.74
2016-12-16T01:27:17.135Z,42.64
2016-12-16T01:28:17.119Z,42.52
2016-12-16T01:29:17.103Z,42.62
2016-12-16T01:30:17.084Z,42.64
2016-12-16T01:31:17.069Z,42.74
2016-12-16T01:32:17.050Z,42.64
2016-12-16T01:33:17.241Z,42.55
2016-12-16T01:34:17.020Z,42.64
2016-12-16T01:35:17.002Z,42.45
2016-12-16T01:36:16.985Z,42.43
2016-12-16T01:37:16.967Z,42.24
2016-12-16T01:38:16.952Z,42.27
2016-12-16T01:39:16.929Z,42.36
2016-12-16T01:40:16.916Z,42.17
2016-12-16T01:41:16.899Z,42.08
2016-12-16T01:42:16.880Z,41.89
2016-12-16T01:43:16.866Z,41.96
2016-12-16T01:44:16.848Z,41.96
2016-12-16T01:45:16.828Z,42.05
2016-12-16T01:46:16.813Z,42.05
2016-12-16T01:47:16.798Z,41.96
2016-12-16T01:48:16.779Z,42.05
2016-12-16T01:49:16.763Z,42.05
2016-12-16T01:50:16.745Z,41.96
2016-12-16T01:51:16.728Z,41.86
2016-12-16T01:52:16.713Z,42.05
2016-12-16T01:53:16.696Z,42.15
2016-12-16T01:54:16.680Z,41.86
2016-12-16T01:55:16.660Z,41.96
2016-12-16T01:56:16.645Z,41.96
2016-12-16T01:57:16.626Z,41.96
2016-12-16T01:58:16.611Z,41.77
2016-12-16T01:59:16.592Z,41.77
2016-12-16T02:00:31.488Z,41.67
2016-12-16T02:01:16.769Z,41.86
2016-12-16T02:02:16.745Z,41.58
2016-12-16T02:03:16.524Z,41.3
2016-12-16T02:04:16.507Z,41.67
2016-12-16T02:05:16.489Z,41.77
2016-12-16T02:06:16.475Z,41.3
2016-12-16T02:07:16.461Z,41.77
2016-12-16T02:08:16.441Z,41.39
2016-12-16T02:09:16.431Z,41.49
2016-12-16T02:10:16.403Z,41.58
2016-12-16T02:11:16.387Z,41.67
2016-12-16T02:12:16.404Z,41.67
2016-12-16T02:13:16.359Z,41.41
2016-12-16T02:14:16.338Z,41.6
2016-12-16T02:15:16.325Z,41.7
2016-12-16T02:16:16.304Z,41.79
2016-12-16T02:17:16.287Z,41.51
2016-12-16T02:18:16.270Z,41.51
2016-12-16T02:19:16.253Z,41.51
2016-12-16T02:20:16.237Z,41.51
2016-12-16T02:21:16.218Z,41.41
2016-12-16T02:22:16.202Z,41.32
2016-12-16T02:23:16.186Z,41.51
2016-12-16T02:24:16.171Z,41.39
2016-12-16T02:25:16.149Z,41.22
2016-12-16T02:26:16.134Z,41.51
2016-12-16T02:27:16.117Z,41.41
2016-12-16T02:28:16.097Z,41.22
2016-12-16T02:29:16.082Z,41.2
2016-12-16T02:30:16.270Z,41.22
2016-12-16T02:31:16.050Z,41.22
2016-12-16T02:32:16.032Z,41.13
2016-12-16T02:33:16.014Z,41.32
2016-12-16T02:34:15.996Z,41.03
2016-12-16T02:35:15.980Z,40.84
2016-12-16T02:36:15.961Z,41.03
2016-12-16T02:37:15.950Z,41.13
2016-12-16T02:38:15.930Z,40.84
2016-12-16T02:39:15.913Z,41.03
2016-12-16T02:40:15.895Z,41.22
2016-12-16T02:41:15.878Z,41.02
2016-12-16T02:42:15.862Z,40.83
2016-12-16T02:43:15.843Z,40.84
2016-12-16T02:44:15.828Z,40.92
2016-12-16T02:45:15.812Z,40.83
2016-12-16T02:46:15.792Z,40.83
2016-12-16T02:47:15.776Z,40.64
2016-12-16T02:48:15.761Z,40.83
2016-12-16T02:49:15.744Z,40.66
2016-12-16T02:50:15.728Z,40.66
2016-12-16T02:51:15.707Z,40.56
2016-12-16T02:52:15.691Z,40.66
2016-12-16T02:53:15.675Z,40.66
2016-12-16T02:54:15.659Z,40.66
2016-12-16T02:55:15.644Z,40.56
2016-12-16T02:56:15.627Z,40.47
2016-12-16T02:57:15.607Z,40.37
2016-12-16T02:58:15.591Z,40.45
2016-12-16T02:59:15.573Z,40.75
2016-12-16T03:00:15.554Z,40.47
2016-12-16T03:01:15.538Z,40.54
2016-12-16T03:02:15.523Z,40.35
2016-12-16T03:03:15.504Z,40.45
2016-12-16T03:04:15.486Z,40.47
2016-12-16T03:05:15.471Z,40.37
2016-12-16T03:06:15.454Z,40.35
2016-12-16T03:07:15.437Z,40.28
2016-12-16T03:08:15.421Z,40.26
2016-12-16T03:09:15.403Z,40.37
2016-12-16T03:10:15.385Z,40.37
2016-12-16T03:11:15.370Z,40.28
2016-12-16T03:12:15.351Z,40.37
2016-12-16T03:13:15.341Z,40.19
2016-12-16T03:14:15.319Z,40.19
2016-12-16T03:15:15.299Z,40.35
2016-12-16T03:16:15.315Z,40.35
2016-12-16T03:17:15.267Z,40.35
2016-12-16T03:18:15.252Z,40.35
2016-12-16T03:19:15.230Z,40.26
2016-12-16T03:20:15.218Z,40.07
2016-12-16T03:21:15.196Z,40.16
2016-12-16T03:22:15.183Z,39.97
2016-12-16T03:23:15.165Z,40.16
2016-12-16T03:24:15.147Z,40.07
2016-12-16T03:25:15.130Z,40.07
2016-12-16T03:26:15.113Z,40.07
2016-12-16T03:27:15.097Z,40.16
2016-12-16T03:28:15.077Z,40.07
2016-12-16T03:29:15.066Z,39.88
2016-12-16T03:30:15.045Z,39.97
2016-12-16T03:31:15.035Z,39.97
2016-12-16T03:32:15.014Z,39.97
2016-12-16T03:33:14.999Z,39.97
2016-12-16T03:34:14.976Z,40.07
2016-12-16T03:35:14.960Z,40.07
2016-12-16T03:36:14.945Z,40.07
2016-12-16T03:37:14.929Z,40.07
2016-12-16T03:38:14.910Z,39.97
2016-12-16T03:39:14.894Z,39.97
2016-12-16T03:40:14.876Z,40
2016-12-16T03:41:14.859Z,40
2016-12-16T03:42:14.843Z,40
2016-12-16T03:43:14.824Z,40
2016-12-16T03:44:14.815Z,40
2016-12-16T03:45:14.788Z,39.81
2016-12-16T03:46:14.775Z,39.9
2016-12-16T03:47:14.760Z,39.71
2016-12-16T03:48:14.746Z,39.71
2016-12-16T03:49:14.725Z,39.71
2016-12-16T03:50:14.706Z,39.52
2016-12-16T03:51:14.692Z,39.43
2016-12-16T03:52:14.673Z,39.62
2016-12-16T03:53:14.657Z,39.62
2016-12-16T03:54:14.640Z,39.71
2016-12-16T03:55:14.627Z,39.62
2016-12-16T03:56:14.608Z,39.71
2016-12-16T03:57:14.592Z,39.71
2016-12-16T03:58:14.576Z,39.9
2016-12-16T03:59:14.553Z,39.71
2016-12-16T04:00:14.539Z,39.31
2016-12-16T04:01:14.520Z,39.9
2016-12-16T04:02:14.506Z,39.9
2016-12-16T04:03:14.487Z,39.81
2016-12-16T04:04:14.473Z,39.81
2016-12-16T04:05:14.456Z,39.52
2016-12-16T04:06:14.439Z,39.52
2016-12-16T04:07:14.421Z,39.62
2016-12-16T04:08:14.404Z,39.33
2016-12-16T04:09:14.386Z,39.33
2016-12-16T04:10:14.370Z,39.43
2016-12-16T04:11:14.355Z,39.4
2016-12-16T04:12:14.339Z,39.33
2016-12-16T04:13:14.321Z,39.43
2016-12-16T04:14:14.301Z,39.33
2016-12-16T04:15:14.288Z,39.24
2016-12-16T04:16:14.270Z,39.33
2016-12-16T04:17:14.256Z,39.24
2016-12-16T04:18:14.235Z,39.14
2016-12-16T04:19:14.220Z,39.24
2016-12-16T04:20:14.204Z,39.05
2016-12-16T04:21:14.183Z,38.95
2016-12-16T04:22:14.168Z,39.24
2016-12-16T04:23:14.154Z,38.95
2016-12-16T04:24:14.133Z,39.24
2016-12-16T04:25:14.118Z,39.24
2016-12-16T04:26:14.102Z,39.05
2016-12-16T04:27:14.084Z,39.14
2016-12-16T04:28:14.068Z,39.05
2016-12-16T04:29:14.051Z,38.76
2016-12-16T04:30:14.036Z,39.14
2016-12-16T04:31:14.016Z,38.67
2016-12-16T04:32:13.998Z,38.67
2016-12-16T04:33:13.984Z,38.86
2016-12-16T04:34:13.966Z,38.86
2016-12-16T04:35:13.948Z,38.76
2016-12-16T04:36:13.930Z,39.05
2016-12-16T04:37:13.914Z,39.05
2016-12-16T04:38:13.897Z,38.57
2016-12-16T04:39:13.880Z,38.67
2016-12-16T04:40:13.860Z,38.67
2016-12-16T04:41:13.846Z,38.67
2016-12-16T04:42:13.831Z,38.67
2016-12-16T04:43:13.813Z,38.67
2016-12-16T04:44:13.798Z,38.76
2016-12-16T04:45:13.784Z,38.76
2016-12-16T04:46:13.770Z,38.67
2016-12-16T04:47:13.743Z,38.76
2016-12-16T04:48:13.729Z,38.76
2016-12-16T04:49:13.710Z,38.67
2016-12-16T04:50:13.695Z,38.76
2016-12-16T04:51:13.679Z,38.48
2016-12-16T04:52:13.659Z,38.67
2016-12-16T04:53:13.645Z,38.67
2016-12-16T04:54:13.625Z,38.67
2016-12-16T04:55:13.608Z,38.76
2016-12-16T04:56:13.594Z,38.67
2016-12-16T04:57:13.575Z,38.48
2016-12-16T04:58:13.557Z,38.57
2016-12-16T04:59:13.542Z,38.57
2016-12-16T05:00:13.523Z,38.48
2016-12-16T05:01:13.507Z,38.29
2016-12-16T05:02:13.489Z,38.39
2016-12-16T05:03:13.475Z,38.29
2016-12-16T05:04:13.452Z,38.46
2016-12-16T05:05:13.438Z,38.37
2016-12-16T05:06:13.420Z,38.39
2016-12-16T05:07:13.402Z,38.29
2016-12-16T05:08:13.387Z,38.48
2016-12-16T05:09:13.373Z,38.2
2016-12-16T05:10:13.352Z,37.9
2016-12-16T05:11:13.336Z,37.9
2016-12-16T05:12:13.318Z,37.8
2016-12-16T05:13:13.299Z,37.92
2016-12-16T05:14:13.283Z,38.01
2016-12-16T05:15:13.267Z,37.99
2016-12-16T05:16:13.255Z,38.09
2016-12-16T05:17:13.240Z,38.09
2016-12-16T05:18:13.216Z,38.09
2016-12-16T05:19:13.199Z,38.09
2016-12-16T05:20:13.179Z,38.09
2016-12-16T05:21:13.164Z,38.09
2016-12-16T05:22:13.146Z,38.18
2016-12-16T05:23:13.131Z,37.99
2016-12-16T05:24:13.111Z,38.18
2016-12-16T05:25:13.096Z,38.1
2016-12-16T05:26:13.077Z,38.2
2016-12-16T05:27:13.059Z,38.2
2016-12-16T05:28:13.040Z,38.2
2016-12-16T05:29:13.025Z,37.82
2016-12-16T05:30:13.009Z,37.82
2016-12-16T05:31:12.989Z,37.8
2016-12-16T05:32:12.974Z,37.8
2016-12-16T05:33:12.957Z,38.09
2016-12-16T05:34:12.940Z,37.8
2016-12-16T05:35:12.922Z,37.71
2016-12-16T05:36:12.905Z,38.2
2016-12-16T05:37:12.887Z,38.2
2016-12-16T05:38:12.868Z,37.82
2016-12-16T05:39:12.852Z,38.01
2016-12-16T05:40:12.834Z,38.18
2016-12-16T05:41:12.818Z,37.99
2016-12-16T05:42:12.800Z,37.9
2016-12-16T05:43:12.783Z,37.8
2016-12-16T05:44:12.765Z,37.71
2016-12-16T05:45:12.749Z,37.71
2016-12-16T05:46:12.730Z,37.71
2016-12-16T05:47:12.713Z,37.71
2016-12-16T05:48:12.695Z,37.9
2016-12-16T05:49:12.678Z,37.99
2016-12-16T05:50:12.660Z,37.61
2016-12-16T05:51:12.645Z,37.8
2016-12-16T05:52:12.632Z,37.8
2016-12-16T05:53:12.609Z,37.71
2016-12-16T05:54:12.594Z,37.52
2016-12-16T05:55:12.577Z,37.71
2016-12-16T05:56:12.554Z,37.61
2016-12-16T05:57:12.539Z,37.52
2016-12-16T05:58:12.523Z,37.61
2016-12-16T05:59:12.504Z,37.52
2016-12-16T06:00:12.487Z,37.71
2016-12-16T06:01:12.475Z,37.52
2016-12-16T06:02:12.455Z,37.52
2016-12-16T06:03:12.442Z,37.9
2016-12-16T06:04:12.422Z,37.71
2016-12-16T06:05:12.402Z,37.61
2016-12-16T06:06:12.384Z,37.8
2016-12-16T06:07:12.367Z,37.61
2016-12-16T06:08:12.348Z,37.71
2016-12-16T06:09:12.331Z,37.8
2016-12-16T06:10:12.317Z,37.61
2016-12-16T06:11:12.296Z,37.52
2016-12-16T06:12:12.277Z,37.71
2016-12-16T06:13:12.265Z,37.61
2016-12-16T06:14:12.242Z,37.42
2016-12-16T06:15:12.225Z,37.42
2016-12-16T06:16:12.209Z,37.42
2016-12-16T06:17:12.194Z,37.42
2016-12-16T06:18:12.172Z,37.52
2016-12-16T06:19:12.157Z,37.42
2016-12-16T06:20:12.140Z,37.52
2016-12-16T06:21:12.121Z,37.33
2016-12-16T06:22:12.135Z,37.04
2016-12-16T06:23:12.084Z,37.04
2016-12-16T06:24:12.070Z,37.04
2016-12-16T06:25:12.049Z,37.04
2016-12-16T06:26:12.033Z,37.04
2016-12-16T06:27:12.016Z,37.04
2016-12-16T06:28:11.998Z,37.14
2016-12-16T06:29:11.978Z,37.14
2016-12-16T06:30:11.966Z,37.04
2016-12-16T06:31:11.946Z,37.14
2016-12-16T06:32:11.929Z,37.04
2016-12-16T06:33:11.915Z,37.14
2016-12-16T06:34:11.890Z,37.04
2016-12-16T06:35:11.876Z,37.14
2016-12-16T06:36:11.857Z,37.14
2016-12-16T06:37:11.835Z,37.14
2016-12-16T06:38:11.821Z,37.04
2016-12-16T06:39:11.805Z,37.14
2016-12-16T06:40:11.784Z,37.23
2016-12-16T06:41:11.767Z,37.04
2016-12-16T06:42:11.749Z,37.14
2016-12-16T06:43:11.733Z,37.14
2016-12-16T06:44:11.715Z,37.14
2016-12-16T06:45:11.697Z,37.23
2016-12-16T06:46:11.678Z,37.04
2016-12-16T06:47:11.662Z,37.14
2016-12-16T06:48:11.643Z,37.14
2016-12-16T06:49:11.627Z,37.23
2016-12-16T06:50:11.608Z,37.33
2016-12-16T06:51:11.594Z,37.23
2016-12-16T06:52:11.573Z,37.23
2016-12-16T06:53:11.554Z,37.23
2016-12-16T06:54:11.538Z,37.14
2016-12-16T06:55:11.519Z,37.33
2016-12-16T06:56:11.501Z,37.23
2016-12-16T06:57:11.484Z,37.23
2016-12-16T06:58:11.468Z,37.04
2016-12-16T06:59:11.450Z,37.33
2016-12-16T07:00:11.437Z,37.23
2016-12-16T07:01:11.718Z,37.23
2016-12-16T07:02:11.397Z,37.14
2016-12-16T07:03:11.379Z,37.23
2016-12-16T07:04:11.364Z,37.23
2016-12-16T07:05:11.350Z,37.16
2016-12-16T07:06:11.330Z,37.06
2016-12-16T07:07:11.310Z,37.06
2016-12-16T07:08:11.294Z,37.16
2016-12-16T07:09:11.581Z,37.06
2016-12-16T07:10:11.259Z,37.16
2016-12-16T07:11:11.243Z,37.06
2016-12-16T07:12:11.226Z,37.16
2016-12-16T07:13:11.208Z,37.16
2016-12-16T07:14:11.194Z,37.16
2016-12-16T07:15:11.173Z,37.16
2016-12-16T07:16:11.156Z,37.06
2016-12-16T07:17:11.138Z,37.06
2016-12-16T07:18:11.123Z,37.06
2016-12-16T07:19:11.105Z,37.18
2016-12-16T07:20:11.087Z,37.16
2016-12-16T07:21:11.073Z,37.16
2016-12-16T07:22:11.054Z,37.16
2016-12-16T07:23:11.036Z,37.16
2016-12-16T07:24:11.022Z,37.16
2016-12-16T07:25:11.004Z,37.18
2016-12-16T07:26:10.989Z,37.18
2016-12-16T07:27:10.974Z,37.16
2016-12-16T07:28:10.953Z,37.16
2016-12-16T07:29:10.943Z,37.18
2016-12-16T07:30:10.922Z,37.18
2016-12-16T07:31:10.906Z,37.18
2016-12-16T07:32:10.888Z,37.08
2016-12-16T07:33:10.870Z,37.18
2016-12-16T07:34:10.862Z,37.18
2016-12-16T07:35:10.840Z,37.08
2016-12-16T07:36:10.822Z,37.37
2016-12-16T07:37:10.807Z,37.55
2016-12-16T07:38:10.791Z,37.08
2016-12-16T07:39:10.772Z,37.08
2016-12-16T07:40:10.760Z,36.99
2016-12-16T07:41:10.739Z,36.99
2016-12-16T07:42:10.724Z,37.37
2016-12-16T07:43:10.709Z,37.46
2016-12-16T07:44:10.691Z,37.55
2016-12-16T07:45:10.676Z,37.76
2016-12-16T07:46:10.658Z,37.76
2016-12-16T07:47:10.646Z,37.76
2016-12-16T07:48:10.629Z,37.76
2016-12-16T07:49:10.613Z,37.86
2016-12-16T07:50:10.594Z,37.69
2016-12-16T07:51:10.580Z,37.48
2016-12-16T07:52:10.573Z,37.48
2016-12-16T07:53:10.548Z,37.48
2016-12-16T07:54:10.534Z,37.57
2016-12-16T07:55:10.520Z,37.86
2016-12-16T07:56:10.508Z,37.67
2016-12-16T07:57:10.486Z,37.97
2016-12-16T07:58:10.472Z,37.69
2016-12-16T07:59:10.455Z,37.86
2016-12-16T08:00:10.440Z,37.76
2016-12-16T08:01:10.424Z,37.67
2016-12-16T08:02:10.412Z,37.78
2016-12-16T08:03:10.395Z,37.78
2016-12-16T08:04:10.379Z,37.78
2016-12-16T08:05:10.365Z,37.59
2016-12-16T08:06:10.349Z,37.78
2016-12-16T08:07:10.334Z,37.69
2016-12-16T08:08:10.317Z,38.07
2016-12-16T08:09:10.305Z,37.97
2016-12-16T08:10:10.289Z,37.71
2016-12-16T08:11:10.276Z,37.99
2016-12-16T08:12:10.259Z,37.97
2016-12-16T08:13:10.243Z,37.78
2016-12-16T08:14:10.228Z,37.8
2016-12-16T08:15:10.215Z,37.9
2016-12-16T08:16:10.200Z,37.78
2016-12-16T08:17:10.183Z,37.86
2016-12-16T08:18:10.173Z,37.69
2016-12-16T08:19:10.153Z,38.07
2016-12-16T08:20:10.141Z,38.09
2016-12-16T08:21:10.128Z,38.09
2016-12-16T08:22:10.113Z,37.9
2016-12-16T08:23:10.095Z,37.78
2016-12-16T08:24:10.082Z,37.78
2016-12-16T08:25:10.065Z,37.69
2016-12-16T08:26:10.051Z,37.76
2016-12-16T08:27:10.036Z,37.95
2016-12-16T08:28:10.020Z,37.69
2016-12-16T08:29:10.004Z,37.78
2016-12-16T08:30:09.990Z,37.76
2016-12-16T08:31:09.978Z,38.05
2016-12-16T08:32:09.964Z,37.67
2016-12-16T08:33:09.946Z,37.67
2016-12-16T08:34:09.929Z,37.76
2016-12-16T08:35:09.915Z,38.07
2016-12-16T08:36:09.907Z,37.88
2016-12-16T08:37:09.885Z,38.18
2016-12-16T08:38:09.869Z,37.9
2016-12-16T08:39:09.854Z,37.9
2016-12-16T08:40:09.846Z,38.29
2016-12-16T08:41:09.825Z,38.2
2016-12-16T08:42:09.816Z,38.22
2016-12-16T08:43:09.797Z,38.03
2016-12-16T08:44:09.785Z,38.12
2016-12-16T08:45:09.769Z,38.03
2016-12-16T08:46:09.755Z,38.03
2016-12-16T08:47:10.049Z,38.12
2016-12-16T08:48:09.726Z,38.12
2016-12-16T08:49:09.715Z,38.28
2016-12-16T08:50:09.698Z,38.2
2016-12-16T08:51:09.688Z,38.03
2016-12-16T08:52:09.671Z,38.5
2016-12-16T08:53:09.659Z,38.43
2016-12-16T08:54:09.648Z,38.53
2016-12-16T08:55:09.631Z,38.53
2016-12-16T08:56:09.619Z,38.53
2016-12-16T08:57:09.607Z,38.24
2016-12-16T08:58:09.592Z,37.95
2016-12-16T08:59:09.577Z,38.14
2016-12-16T09:00:09.763Z,38.33
2016-12-16T09:01:09.554Z,38.62
2016-12-16T09:02:09.541Z,38.14
2016-12-16T09:03:09.524Z,38.43
2016-12-16T09:04:09.512Z,38.43
2016-12-16T09:05:09.498Z,38.64
2016-12-16T09:06:09.489Z,38.64
2016-12-16T09:07:09.472Z,38.54
2016-12-16T09:08:09.460Z,38.54
2016-12-16T09:09:09.446Z,38.16
2016-12-16T09:10:09.435Z,38.43
2016-12-16T09:11:09.429Z,38.24
2016-12-16T09:12:09.413Z,38.03
2016-12-16T09:13:09.421Z,37.95
2016-12-16T09:14:09.388Z,38.24
2016-12-16T09:15:09.371Z,38.26
2016-12-16T09:16:09.359Z,38.35
2016-12-16T09:17:09.344Z,38.54
2016-12-16T09:18:09.331Z,37.97
2016-12-16T09:19:09.318Z,38.35
2016-12-16T09:20:09.304Z,38.33
2016-12-16T09:21:09.300Z,38.24
2016-12-16T09:22:09.279Z,38.33
2016-12-16T09:23:09.267Z,38.24
2016-12-16T09:24:09.256Z,38.33
2016-12-16T09:25:09.240Z,37.95
2016-12-16T09:26:09.229Z,37.95
2016-12-16T09:27:09.217Z,37.93
2016-12-16T09:28:09.201Z,37.74
2016-12-16T09:29:09.187Z,38.33
2016-12-16T09:30:09.175Z,38.05
2016-12-16T09:31:09.165Z,37.93
2016-12-16T09:32:09.150Z,37.95
2016-12-16T09:33:09.137Z,37.76
2016-12-16T09:34:09.123Z,37.95
2016-12-16T09:35:09.112Z,38.24
2016-12-16T09:36:09.102Z,38.26
2016-12-16T09:37:09.083Z,38.35
2016-12-16T09:38:09.070Z,38.35
2016-12-16T09:39:09.060Z,38.35
2016-12-16T09:40:09.054Z,38.35
2016-12-16T09:41:09.036Z,37.97
2016-12-16T09:42:09.029Z,37.97
2016-12-16T09:43:09.008Z,37.97
2016-12-16T09:44:08.998Z,37.95
2016-12-16T09:45:08.983Z,37.88
2016-12-16T09:46:08.972Z,37.97
2016-12-16T09:47:08.958Z,38.35
2016-12-16T09:48:08.949Z,37.88
2016-12-16T09:49:08.933Z,37.78
2016-12-16T09:50:08.920Z,38.07
2016-12-16T09:51:08.911Z,38.16
2016-12-16T09:52:08.898Z,38.05
2016-12-16T09:53:08.884Z,37.76
2016-12-16T09:54:08.872Z,37.84
2016-12-16T09:55:08.856Z,38.33
2016-12-16T09:56:08.845Z,38.33
2016-12-16T09:57:08.834Z,37.97
2016-12-16T09:58:08.816Z,38.07
2016-12-16T09:59:08.805Z,38.07
2016-12-16T10:00:08.794Z,38.16
2016-12-16T10:01:08.778Z,38.16
2016-12-16T10:02:08.766Z,38.26
2016-12-16T10:03:08.756Z,38.16
2016-12-16T10:04:08.743Z,37.86
2016-12-16T10:05:08.728Z,37.84
2016-12-16T10:06:08.716Z,37.65
2016-12-16T10:07:08.703Z,38.12
2016-12-16T10:08:08.690Z,37.74
2016-12-16T10:09:08.678Z,37.86
2016-12-16T10:10:08.666Z,37.86
2016-12-16T10:11:08.652Z,37.76
2016-12-16T10:12:08.641Z,37.74
2016-12-16T10:13:08.624Z,38.12
2016-12-16T10:14:08.618Z,37.95
2016-12-16T10:15:08.607Z,37.97
2016-12-16T10:16:08.588Z,38.16
2016-12-16T10:17:08.578Z,38.07
2016-12-16T10:18:08.563Z,38.35
2016-12-16T10:19:08.549Z,38.16
2016-12-16T10:20:08.538Z,38.14
2016-12-16T10:21:08.527Z,38.14
2016-12-16T10:22:08.515Z,37.86
2016-12-16T10:23:08.499Z,38.05
2016-12-16T10:24:08.489Z,37.86
2016-12-16T10:25:08.477Z,37.88
2016-12-16T10:26:08.463Z,37.95
2016-12-16T10:27:08.453Z,37.86
2016-12-16T10:28:08.440Z,38.05
2016-12-16T10:29:08.428Z,38.35
2016-12-16T10:30:08.414Z,38.16
2016-12-16T10:31:08.403Z,38.26
2016-12-16T10:32:08.388Z,38.37
2016-12-16T10:33:08.378Z,38.16
2016-12-16T10:34:08.363Z,37.88
2016-12-16T10:35:08.353Z,38.35
2016-12-16T10:36:08.343Z,38.26
2016-12-16T10:37:08.329Z,38.35
2016-12-16T10:38:08.319Z,38.26
2016-12-16T10:39:08.306Z,38.35
2016-12-16T10:40:08.297Z,38.37
2016-12-16T10:41:08.282Z,38.35
2016-12-16T10:42:08.272Z,38.18
2016-12-16T10:43:08.259Z,38.28
2016-12-16T10:44:08.249Z,38.09
2016-12-16T10:45:08.234Z,37.99
2016-12-16T10:46:08.227Z,38.01
2016-12-16T10:47:08.210Z,38.39
2016-12-16T10:48:08.202Z,38.03
2016-12-16T10:49:08.192Z,38.01
2016-12-16T10:50:08.181Z,38.1
2016-12-16T10:51:08.168Z,38.39
2016-12-16T10:52:08.155Z,38.28
2016-12-16T10:53:08.145Z,38.09
2016-12-16T10:54:08.135Z,37.86
2016-12-16T10:55:08.121Z,37.95
2016-12-16T10:56:08.112Z,37.88
2016-12-16T10:57:08.148Z,38.16
2016-12-16T10:58:08.090Z,38.16
2016-12-16T10:59:08.081Z,38.16
2016-12-16T11:00:08.063Z,38.07
2016-12-16T11:01:08.054Z,38.37
2016-12-16T11:02:08.043Z,38.18
2016-12-16T11:03:08.077Z,38.16
2016-12-16T11:04:08.017Z,38.16
2016-12-16T11:05:08.007Z,38.16
2016-12-16T11:06:07.993Z,38.26
2016-12-16T11:07:07.982Z,38.07
2016-12-16T11:08:07.971Z,38.26
2016-12-16T11:09:07.961Z,38.14
2016-12-16T11:10:07.947Z,38.35
2016-12-16T11:11:07.938Z,37.78
2016-12-16T11:12:07.926Z,37.86
2016-12-16T11:13:07.912Z,37.84
2016-12-16T11:14:07.903Z,38.03
2016-12-16T11:15:07.890Z,38.03
2016-12-16T11:16:07.878Z,37.86
2016-12-16T11:17:07.867Z,37.84
2016-12-16T11:18:07.855Z,38.12
2016-12-16T11:19:07.845Z,37.93
2016-12-16T11:20:07.832Z,38.24
2016-12-16T11:21:07.820Z,37.97
2016-12-16T11:22:07.808Z,37.97
2016-12-16T11:23:07.794Z,37.95
2016-12-16T11:24:07.780Z,37.97
2016-12-16T11:25:07.769Z,38.26
2016-12-16T11:26:07.757Z,38.12
2016-12-16T11:27:07.747Z,38.22
2016-12-16T11:28:07.734Z,38.24
2016-12-16T11:29:07.720Z,38.43
2016-12-16T11:30:07.711Z,38.07
2016-12-16T11:31:07.701Z,38.09
2016-12-16T11:32:07.684Z,38.28
2016-12-16T11:33:07.673Z,38.35
2016-12-16T11:34:07.662Z,38.16
2016-12-16T11:35:07.650Z,38.45
2016-12-16T11:36:07.639Z,38.07
2016-12-16T11:37:07.626Z,38.09
2016-12-16T11:38:07.616Z,37.9
2016-12-16T11:39:07.605Z,38.24
2016-12-16T11:40:07.590Z,38.12
2016-12-16T11:41:07.579Z,38.29
2016-12-16T11:42:07.570Z,38.01
2016-12-16T11:43:07.556Z,38.01
2016-12-16T11:44:07.544Z,38.2
2016-12-16T11:45:07.533Z,37.92
2016-12-16T11:46:07.526Z,37.93
2016-12-16T11:47:07.510Z,38.31
2016-12-16T11:48:07.497Z,38.31
2016-12-16T11:49:07.480Z,38.03
2016-12-16T11:50:07.468Z,38.24
2016-12-16T11:51:07.459Z,38.07
2016-12-16T11:52:07.443Z,37.88
2016-12-16T11:53:07.432Z,37.84
2016-12-16T11:54:07.426Z,38.12
2016-12-16T11:55:07.410Z,38.01
2016-12-16T11:56:07.395Z,38.29
2016-12-16T11:57:07.383Z,38.12
2016-12-16T11:58:07.370Z,38.03
2016-12-16T11:59:07.356Z,38.43
2016-12-16T12:00:07.349Z,38.54
2016-12-16T12:01:07.332Z,38.45
2016-12-16T12:02:07.323Z,38.56
2016-12-16T12:03:07.311Z,38.09
2016-12-16T12:04:07.299Z,38.26
2016-12-16T12:05:07.286Z,38.33
2016-12-16T12:06:07.274Z,38.43
2016-12-16T12:07:07.264Z,38.45
2016-12-16T12:08:07.256Z,38.65
2016-12-16T12:09:07.239Z,38.09
2016-12-16T12:10:07.231Z,37.97
2016-12-16T12:11:07.219Z,37.93
2016-12-16T12:12:07.206Z,38.22
2016-12-16T12:13:07.198Z,38.05
2016-12-16T12:14:07.185Z,38.26
2016-12-16T12:15:07.174Z,38.24
2016-12-16T12:16:07.160Z,38.24
2016-12-16T12:17:07.154Z,38.64
2016-12-16T12:18:07.142Z,38.46
2016-12-16T12:19:07.130Z,38.09
2016-12-16T12:20:07.115Z,38.07
2016-12-16T12:21:07.107Z,38.45
2016-12-16T12:22:07.094Z,38.26
2016-12-16T12:23:07.085Z,38.07
2016-12-16T12:24:07.072Z,38.26
2016-12-16T12:25:07.063Z,38.46
2016-12-16T12:26:07.051Z,38.29
2016-12-16T12:27:07.041Z,37.97
2016-12-16T12:28:07.031Z,37.95
2016-12-16T12:29:07.019Z,38.14
2016-12-16T12:30:07.009Z,38.35
2016-12-16T12:31:06.997Z,37.8
2016-12-16T12:32:06.986Z,37.97
2016-12-16T12:33:06.976Z,37.84
2016-12-16T12:34:06.965Z,38.12
2016-12-16T12:35:06.954Z,37.86
2016-12-16T12:36:06.945Z,37.95
2016-12-16T12:37:06.932Z,37.76
2016-12-16T12:38:06.920Z,37.84
2016-12-16T12:39:06.909Z,38.12
2016-12-16T12:40:06.899Z,37.84
2016-12-16T12:41:06.886Z,37.86
2016-12-16T12:42:06.877Z,37.97
2016-12-16T12:43:06.862Z,37.88
2016-12-16T12:44:06.853Z,38.16
2016-12-16T12:45:06.844Z,38.14
2016-12-16T12:46:06.830Z,38.07
2016-12-16T12:47:06.821Z,37.97
2016-12-16T12:48:06.810Z,38.37
2016-12-16T12:49:06.800Z,38.28
2016-12-16T12:50:06.789Z,37.9
2016-12-16T12:51:06.779Z,38.37
2016-12-16T12:52:06.768Z,37.99
2016-12-16T12:53:06.757Z,37.99
2016-12-16T12:54:06.748Z,38.18
2016-12-16T12:55:06.738Z,37.9